sensor_id;sensor_type;location;lat;lon;timestamp;P1;durP1;ratioP1;P2;durP2;ratioP2
28009;SDS011;15334;49.494;8.410;2022-09-29T00:00:51;6.40;;;3.30;;
28009;SDS011;15334;49.494;8.410;2022-09-29T00:03:20;5.65;;;2.60;;
28009;SDS011;15334;49.494;8.410;2022-09-29T00:05:52;7.28;;;3.47;;
28009;SDS011;15334;49.494;8.410;2022-09-29T00:08:22;7.70;;;4.20;;
28009;SDS011;15334;49.494;8.410;2022-09-29T00:10:53;6.63;;;3.22;;
28009;SDS011;15334;49.494;8.410;2022-09-29T00:13:22;9.30;;;2.58;;
28009;SDS011;15334;49.494;8.410;2022-09-29T00:15:56;6.80;;;3.65;;
28009;SDS011;15334;49.494;8.410;2022-09-29T00:18:26;9.80;;;3.85;;
28009;SDS011;15334;49.494;8.410;2022-09-29T00:20:58;7.53;;;3.67;;
28009;SDS011;15334;49.494;8.410;2022-09-29T00:23:27;6.45;;;3.65;;
28009;SDS011;15334;49.494;8.410;2022-09-29T00:26:02;11.15;;;4.55;;
28009;SDS011;15334;49.494;8.410;2022-09-29T00:28:32;12.10;;;4.60;;
28009;SDS011;15334;49.494;8.410;2022-09-29T00:31:01;10.70;;;4.90;;
28009;SDS011;15334;49.494;8.410;2022-09-29T00:33:31;15.85;;;4.97;;
28009;SDS011;15334;49.494;8.410;2022-09-29T00:36:00;11.95;;;5.03;;
28009;SDS011;15334;49.494;8.410;2022-09-29T00:38:30;14.55;;;6.13;;
28009;SDS011;15334;49.494;8.410;2022-09-29T00:41:02;19.85;;;7.43;;
28009;SDS011;15334;49.494;8.410;2022-09-29T00:43:47;17.75;;;6.57;;
28009;SDS011;15334;49.494;8.410;2022-09-29T00:46:17;12.80;;;6.10;;
28009;SDS011;15334;49.494;8.410;2022-09-29T00:48:52;19.13;;;7.18;;
28009;SDS011;15334;49.494;8.410;2022-09-29T00:51:22;14.75;;;5.50;;
28009;SDS011;15334;49.494;8.410;2022-09-29T00:53:52;19.05;;;6.72;;
28009;SDS011;15334;49.494;8.410;2022-09-29T00:56:22;19.13;;;6.43;;
28009;SDS011;15334;49.494;8.410;2022-09-29T00:58:51;16.40;;;6.93;;
28009;SDS011;15334;49.494;8.410;2022-09-29T01:01:22;15.57;;;6.80;;
28009;SDS011;15334;49.494;8.410;2022-09-29T01:03:53;18.38;;;7.43;;
28009;SDS011;15334;49.494;8.410;2022-09-29T01:06:24;17.25;;;6.45;;
28009;SDS011;15334;49.494;8.410;2022-09-29T01:08:57;17.48;;;7.18;;
28009;SDS011;15334;49.494;8.410;2022-09-29T01:11:28;17.38;;;6.93;;
28009;SDS011;15334;49.494;8.410;2022-09-29T01:13:57;14.15;;;6.07;;
28009;SDS011;15334;49.494;8.410;2022-09-29T01:16:29;15.18;;;6.82;;
28009;SDS011;15334;49.494;8.410;2022-09-29T01:18:58;18.60;;;6.95;;
28009;SDS011;15334;49.494;8.410;2022-09-29T01:21:33;19.25;;;7.43;;
28009;SDS011;15334;49.494;8.410;2022-09-29T01:24:20;16.05;;;6.38;;
28009;SDS011;15334;49.494;8.410;2022-09-29T01:27:06;14.85;;;6.78;;
28009;SDS011;15334;49.494;8.410;2022-09-29T01:29:56;16.33;;;6.65;;
28009;SDS011;15334;49.494;8.410;2022-09-29T01:32:38;17.50;;;6.18;;
28009;SDS011;15334;49.494;8.410;2022-09-29T01:35:39;17.73;;;7.70;;
28009;SDS011;15334;49.494;8.410;2022-09-29T01:38:22;17.52;;;7.32;;
28009;SDS011;15334;49.494;8.410;2022-09-29T01:41:03;18.98;;;7.85;;
28009;SDS011;15334;49.494;8.410;2022-09-29T01:43:35;17.50;;;7.32;;
28009;SDS011;15334;49.494;8.410;2022-09-29T01:46:07;17.92;;;6.88;;
28009;SDS011;15334;49.494;8.410;2022-09-29T01:48:43;20.38;;;7.60;;
28009;SDS011;15334;49.494;8.410;2022-09-29T01:51:16;21.52;;;7.43;;
28009;SDS011;15334;49.494;8.410;2022-09-29T01:53:47;20.70;;;8.40;;
28009;SDS011;15334;49.494;8.410;2022-09-29T01:56:20;17.80;;;7.47;;
28009;SDS011;15334;49.494;8.410;2022-09-29T01:58:53;23.92;;;7.85;;
28009;SDS011;15334;49.494;8.410;2022-09-29T02:01:29;19.67;;;6.90;;
28009;SDS011;15334;49.494;8.410;2022-09-29T02:04:02;20.13;;;8.00;;
28009;SDS011;15334;49.494;8.410;2022-09-29T02:06:34;19.52;;;7.55;;
28009;SDS011;15334;49.494;8.410;2022-09-29T02:09:07;14.15;;;6.75;;
28009;SDS011;15334;49.494;8.410;2022-09-29T02:11:39;17.35;;;7.75;;
28009;SDS011;15334;49.494;8.410;2022-09-29T02:14:10;23.40;;;7.85;;
28009;SDS011;15334;49.494;8.410;2022-09-29T02:16:42;17.15;;;7.43;;
28009;SDS011;15334;49.494;8.410;2022-09-29T02:19:16;18.25;;;7.35;;
28009;SDS011;15334;49.494;8.410;2022-09-29T02:21:48;22.48;;;7.70;;
28009;SDS011;15334;49.494;8.410;2022-09-29T02:24:19;22.30;;;8.23;;
28009;SDS011;15334;49.494;8.410;2022-09-29T02:26:48;22.05;;;7.50;;
28009;SDS011;15334;49.494;8.410;2022-09-29T02:29:16;17.27;;;7.57;;
28009;SDS011;15334;49.494;8.410;2022-09-29T02:31:46;18.90;;;7.20;;
28009;SDS011;15334;49.494;8.410;2022-09-29T02:34:17;18.15;;;7.63;;
28009;SDS011;15334;49.494;8.410;2022-09-29T02:36:51;14.95;;;6.45;;
28009;SDS011;15334;49.494;8.410;2022-09-29T02:39:27;20.20;;;7.88;;
28009;SDS011;15334;49.494;8.410;2022-09-29T02:42:04;17.90;;;7.28;;
28009;SDS011;15334;49.494;8.410;2022-09-29T02:44:44;15.43;;;6.65;;
28009;SDS011;15334;49.494;8.410;2022-09-29T02:53:20;19.10;;;7.38;;
28009;SDS011;15334;49.494;8.410;2022-09-29T02:55:56;14.63;;;6.45;;
28009;SDS011;15334;49.494;8.410;2022-09-29T02:58:31;18.00;;;6.38;;
28009;SDS011;15334;49.494;8.410;2022-09-29T03:01:05;17.40;;;6.95;;
28009;SDS011;15334;49.494;8.410;2022-09-29T03:03:33;14.95;;;6.60;;
28009;SDS011;15334;49.494;8.410;2022-09-29T03:06:01;12.65;;;6.20;;
28009;SDS011;15334;49.494;8.410;2022-09-29T03:08:31;17.23;;;7.20;;
28009;SDS011;15334;49.494;8.410;2022-09-29T03:10:59;24.00;;;8.57;;
28009;SDS011;15334;49.494;8.410;2022-09-29T03:13:27;16.95;;;7.38;;
28009;SDS011;15334;49.494;8.410;2022-09-29T03:15:55;16.40;;;7.43;;
28009;SDS011;15334;49.494;8.410;2022-09-29T03:18:23;17.35;;;8.48;;
28009;SDS011;15334;49.494;8.410;2022-09-29T03:20:55;18.45;;;7.40;;
28009;SDS011;15334;49.494;8.410;2022-09-29T03:23:23;20.73;;;7.75;;
28009;SDS011;15334;49.494;8.410;2022-09-29T03:25:53;18.00;;;7.32;;
28009;SDS011;15334;49.494;8.410;2022-09-29T03:28:21;17.02;;;7.30;;
28009;SDS011;15334;49.494;8.410;2022-09-29T03:30:49;20.48;;;7.68;;
28009;SDS011;15334;49.494;8.410;2022-09-29T03:33:17;17.70;;;6.90;;
28009;SDS011;15334;49.494;8.410;2022-09-29T03:35:45;13.57;;;6.30;;
28009;SDS011;15334;49.494;8.410;2022-09-29T03:38:15;18.60;;;7.40;;
28009;SDS011;15334;49.494;8.410;2022-09-29T03:40:43;16.73;;;6.78;;
28009;SDS011;15334;49.494;8.410;2022-09-29T03:43:12;14.80;;;6.65;;
28009;SDS011;15334;49.494;8.410;2022-09-29T03:45:46;16.85;;;6.90;;
28009;SDS011;15334;49.494;8.410;2022-09-29T03:48:15;13.18;;;6.47;;
28009;SDS011;15334;49.494;8.410;2022-09-29T03:50:50;17.42;;;7.20;;
28009;SDS011;15334;49.494;8.410;2022-09-29T03:53:19;16.00;;;7.03;;
28009;SDS011;15334;49.494;8.410;2022-09-29T03:55:47;18.02;;;7.25;;
28009;SDS011;15334;49.494;8.410;2022-09-29T03:58:17;21.70;;;6.68;;
28009;SDS011;15334;49.494;8.410;2022-09-29T04:00:46;21.17;;;8.32;;
28009;SDS011;15334;49.494;8.410;2022-09-29T04:03:15;17.55;;;7.32;;
28009;SDS011;15334;49.494;8.410;2022-09-29T04:05:43;16.15;;;7.40;;
28009;SDS011;15334;49.494;8.410;2022-09-29T04:08:11;18.20;;;7.75;;
28009;SDS011;15334;49.494;8.410;2022-09-29T04:10:40;20.85;;;7.38;;
28009;SDS011;15334;49.494;8.410;2022-09-29T04:13:09;24.80;;;7.38;;
28009;SDS011;15334;49.494;8.410;2022-09-29T04:15:38;17.15;;;7.10;;
28009;SDS011;15334;49.494;8.410;2022-09-29T04:18:06;19.50;;;7.65;;
28009;SDS011;15334;49.494;8.410;2022-09-29T04:20:34;17.38;;;7.60;;
28009;SDS011;15334;49.494;8.410;2022-09-29T04:23:03;15.90;;;6.65;;
28009;SDS011;15334;49.494;8.410;2022-09-29T04:25:31;24.40;;;7.38;;
28009;SDS011;15334;49.494;8.410;2022-09-29T04:28:00;31.27;;;9.95;;
28009;SDS011;15334;49.494;8.410;2022-09-29T04:30:28;19.90;;;8.50;;
28009;SDS011;15334;49.494;8.410;2022-09-29T04:32:57;29.17;;;9.90;;
28009;SDS011;15334;49.494;8.410;2022-09-29T04:35:25;20.45;;;8.88;;
28009;SDS011;15334;49.494;8.410;2022-09-29T04:37:53;20.55;;;8.65;;
28009;SDS011;15334;49.494;8.410;2022-09-29T04:40:22;20.55;;;8.73;;
28009;SDS011;15334;49.494;8.410;2022-09-29T04:42:50;25.48;;;8.88;;
28009;SDS011;15334;49.494;8.410;2022-09-29T04:45:18;22.77;;;9.43;;
28009;SDS011;15334;49.494;8.410;2022-09-29T04:47:46;26.00;;;9.80;;
28009;SDS011;15334;49.494;8.410;2022-09-29T04:50:16;24.30;;;9.00;;
28009;SDS011;15334;49.494;8.410;2022-09-29T04:52:44;22.58;;;8.93;;
28009;SDS011;15334;49.494;8.410;2022-09-29T04:55:12;20.85;;;8.05;;
28009;SDS011;15334;49.494;8.410;2022-09-29T04:57:40;21.15;;;7.97;;
28009;SDS011;15334;49.494;8.410;2022-09-29T05:00:09;19.23;;;8.13;;
28009;SDS011;15334;49.494;8.410;2022-09-29T05:02:38;22.40;;;8.38;;
28009;SDS011;15334;49.494;8.410;2022-09-29T05:05:07;25.83;;;7.97;;
28009;SDS011;15334;49.494;8.410;2022-09-29T05:07:38;21.48;;;7.57;;
28009;SDS011;15334;49.494;8.410;2022-09-29T05:10:07;23.38;;;8.25;;
28009;SDS011;15334;49.494;8.410;2022-09-29T05:12:35;25.42;;;9.13;;
28009;SDS011;15334;49.494;8.410;2022-09-29T05:15:04;19.25;;;7.72;;
28009;SDS011;15334;49.494;8.410;2022-09-29T05:17:32;18.35;;;7.47;;
28009;SDS011;15334;49.494;8.410;2022-09-29T05:20:00;16.90;;;7.00;;
28009;SDS011;15334;49.494;8.410;2022-09-29T05:22:28;17.50;;;6.43;;
28009;SDS011;15334;49.494;8.410;2022-09-29T05:24:59;17.85;;;7.53;;
28009;SDS011;15334;49.494;8.410;2022-09-29T05:27:27;15.98;;;7.13;;
28009;SDS011;15334;49.494;8.410;2022-09-29T05:29:57;16.77;;;6.55;;
28009;SDS011;15334;49.494;8.410;2022-09-29T05:32:25;15.32;;;6.22;;
28009;SDS011;15334;49.494;8.410;2022-09-29T05:34:53;19.13;;;7.18;;
28009;SDS011;15334;49.494;8.410;2022-09-29T05:37:21;19.45;;;6.47;;
28009;SDS011;15334;49.494;8.410;2022-09-29T05:39:49;21.45;;;7.40;;
28009;SDS011;15334;49.494;8.410;2022-09-29T05:42:18;17.33;;;7.03;;
28009;SDS011;15334;49.494;8.410;2022-09-29T05:44:46;16.00;;;7.00;;
28009;SDS011;15334;49.494;8.410;2022-09-29T05:47:14;16.40;;;7.88;;
28009;SDS011;15334;49.494;8.410;2022-09-29T05:49:43;17.77;;;7.60;;
28009;SDS011;15334;49.494;8.410;2022-09-29T05:52:11;21.15;;;8.85;;
28009;SDS011;15334;49.494;8.410;2022-09-29T05:54:39;18.70;;;8.13;;
28009;SDS011;15334;49.494;8.410;2022-09-29T05:57:07;23.38;;;10.65;;
28009;SDS011;15334;49.494;8.410;2022-09-29T05:59:36;17.58;;;8.32;;
28009;SDS011;15334;49.494;8.410;2022-09-29T06:02:04;18.67;;;7.82;;
28009;SDS011;15334;49.494;8.410;2022-09-29T06:04:32;22.77;;;9.00;;
28009;SDS011;15334;49.494;8.410;2022-09-29T06:07:06;24.77;;;9.25;;
28009;SDS011;15334;49.494;8.410;2022-09-29T06:09:34;21.63;;;10.18;;
28009;SDS011;15334;49.494;8.410;2022-09-29T06:12:03;24.33;;;10.18;;
28009;SDS011;15334;49.494;8.410;2022-09-29T06:14:31;24.67;;;9.80;;
28009;SDS011;15334;49.494;8.410;2022-09-29T06:17:00;24.23;;;9.65;;
28009;SDS011;15334;49.494;8.410;2022-09-29T06:19:30;25.63;;;9.05;;
28009;SDS011;15334;49.494;8.410;2022-09-29T06:21:57;27.05;;;9.35;;
28009;SDS011;15334;49.494;8.410;2022-09-29T06:24:25;21.75;;;8.07;;
28009;SDS011;15334;49.494;8.410;2022-09-29T06:26:53;16.73;;;7.32;;
28009;SDS011;15334;49.494;8.410;2022-09-29T06:29:21;21.02;;;8.27;;
28009;SDS011;15334;49.494;8.410;2022-09-29T06:31:49;22.48;;;7.30;;
28009;SDS011;15334;49.494;8.410;2022-09-29T06:34:19;23.00;;;8.65;;
28009;SDS011;15334;49.494;8.410;2022-09-29T06:36:47;21.83;;;8.85;;
28009;SDS011;15334;49.494;8.410;2022-09-29T06:39:32;21.75;;;7.72;;
28009;SDS011;15334;49.494;8.410;2022-09-29T06:42:00;17.02;;;7.82;;
28009;SDS011;15334;49.494;8.410;2022-09-29T06:44:28;18.55;;;8.85;;
28009;SDS011;15334;49.494;8.410;2022-09-29T06:46:56;20.42;;;8.15;;
28009;SDS011;15334;49.494;8.410;2022-09-29T06:49:26;17.00;;;7.50;;
28009;SDS011;15334;49.494;8.410;2022-09-29T06:51:54;16.90;;;6.72;;
28009;SDS011;15334;49.494;8.410;2022-09-29T06:54:22;18.15;;;9.13;;
28009;SDS011;15334;49.494;8.410;2022-09-29T06:56:51;21.98;;;8.23;;
28009;SDS011;15334;49.494;8.410;2022-09-29T06:59:21;20.92;;;7.43;;
28009;SDS011;15334;49.494;8.410;2022-09-29T07:01:49;20.42;;;8.50;;
28009;SDS011;15334;49.494;8.410;2022-09-29T07:04:18;20.83;;;8.15;;
28009;SDS011;15334;49.494;8.410;2022-09-29T07:06:48;21.95;;;9.38;;
28009;SDS011;15334;49.494;8.410;2022-09-29T07:09:16;22.45;;;8.60;;
28009;SDS011;15334;49.494;8.410;2022-09-29T07:11:46;18.27;;;9.52;;
28009;SDS011;15334;49.494;8.410;2022-09-29T07:14:16;19.85;;;8.00;;
28009;SDS011;15334;49.494;8.410;2022-09-29T07:16:46;21.33;;;9.20;;
28009;SDS011;15334;49.494;8.410;2022-09-29T07:19:15;20.63;;;9.38;;
28009;SDS011;15334;49.494;8.410;2022-09-29T07:21:45;18.20;;;7.95;;
28009;SDS011;15334;49.494;8.410;2022-09-29T07:24:15;17.55;;;7.68;;
28009;SDS011;15334;49.494;8.410;2022-09-29T07:26:43;24.58;;;7.95;;
28009;SDS011;15334;49.494;8.410;2022-09-29T07:29:11;19.33;;;7.93;;
28009;SDS011;15334;49.494;8.410;2022-09-29T07:31:41;16.48;;;7.28;;
28009;SDS011;15334;49.494;8.410;2022-09-29T07:34:17;17.73;;;7.82;;
28009;SDS011;15334;49.494;8.410;2022-09-29T07:36:48;18.70;;;6.70;;
28009;SDS011;15334;49.494;8.410;2022-09-29T07:39:18;21.25;;;7.75;;
28009;SDS011;15334;49.494;8.410;2022-09-29T07:41:46;17.23;;;8.70;;
28009;SDS011;15334;49.494;8.410;2022-09-29T07:44:14;20.58;;;8.23;;
28009;SDS011;15334;49.494;8.410;2022-09-29T07:46:47;23.02;;;8.38;;
28009;SDS011;15334;49.494;8.410;2022-09-29T07:49:15;18.92;;;7.63;;
28009;SDS011;15334;49.494;8.410;2022-09-29T07:51:43;19.20;;;7.45;;
28009;SDS011;15334;49.494;8.410;2022-09-29T07:54:11;22.35;;;9.15;;
28009;SDS011;15334;49.494;8.410;2022-09-29T07:56:40;24.13;;;8.98;;
28009;SDS011;15334;49.494;8.410;2022-09-29T07:59:09;18.90;;;8.35;;
28009;SDS011;15334;49.494;8.410;2022-09-29T08:01:37;19.13;;;7.88;;
28009;SDS011;15334;49.494;8.410;2022-09-29T08:04:06;22.98;;;8.18;;
28009;SDS011;15334;49.494;8.410;2022-09-29T08:06:36;21.63;;;9.35;;
28009;SDS011;15334;49.494;8.410;2022-09-29T08:09:05;20.77;;;8.23;;
28009;SDS011;15334;49.494;8.410;2022-09-29T08:11:35;19.73;;;8.88;;
28009;SDS011;15334;49.494;8.410;2022-09-29T08:14:06;27.90;;;9.30;;
28009;SDS011;15334;49.494;8.410;2022-09-29T08:16:34;19.77;;;10.05;;
28009;SDS011;15334;49.494;8.410;2022-09-29T08:19:03;22.23;;;9.32;;
28009;SDS011;15334;49.494;8.410;2022-09-29T08:21:32;21.35;;;8.40;;
28009;SDS011;15334;49.494;8.410;2022-09-29T08:24:02;18.65;;;8.73;;
28009;SDS011;15334;49.494;8.410;2022-09-29T08:26:31;19.30;;;8.98;;
28009;SDS011;15334;49.494;8.410;2022-09-29T08:29:10;19.98;;;8.82;;
28009;SDS011;15334;49.494;8.410;2022-09-29T08:31:42;20.25;;;8.13;;
28009;SDS011;15334;49.494;8.410;2022-09-29T08:34:10;19.40;;;8.15;;
28009;SDS011;15334;49.494;8.410;2022-09-29T08:36:39;18.88;;;8.52;;
28009;SDS011;15334;49.494;8.410;2022-09-29T08:39:08;19.27;;;8.65;;
28009;SDS011;15334;49.494;8.410;2022-09-29T08:41:48;20.25;;;9.88;;
28009;SDS011;15334;49.494;8.410;2022-09-29T08:44:23;18.67;;;9.10;;
28009;SDS011;15334;49.494;8.410;2022-09-29T08:47:05;18.23;;;8.55;;
28009;SDS011;15334;49.494;8.410;2022-09-29T08:49:42;21.50;;;9.40;;
28009;SDS011;15334;49.494;8.410;2022-09-29T08:54:45;20.80;;;9.20;;
28009;SDS011;15334;49.494;8.410;2022-09-29T08:57:16;19.20;;;10.02;;
28009;SDS011;15334;49.494;8.410;2022-09-29T08:59:48;19.83;;;9.40;;
28009;SDS011;15334;49.494;8.410;2022-09-29T09:02:33;20.05;;;9.27;;
28009;SDS011;15334;49.494;8.410;2022-09-29T09:05:24;21.63;;;10.23;;
28009;SDS011;15334;49.494;8.410;2022-09-29T09:08:02;19.50;;;9.77;;
28009;SDS011;15334;49.494;8.410;2022-09-29T09:10:41;17.80;;;9.07;;
28009;SDS011;15334;49.494;8.410;2022-09-29T09:13:24;18.00;;;9.13;;
28009;SDS011;15334;49.494;8.410;2022-09-29T09:16:10;18.33;;;9.30;;
28009;SDS011;15334;49.494;8.410;2022-09-29T09:18:49;16.23;;;9.63;;
28009;SDS011;15334;49.494;8.410;2022-09-29T09:21:33;20.30;;;9.00;;
28009;SDS011;15334;49.494;8.410;2022-09-29T09:24:13;20.58;;;10.73;;
28009;SDS011;15334;49.494;8.410;2022-09-29T09:26:49;23.05;;;10.43;;
28009;SDS011;15334;49.494;8.410;2022-09-29T09:29:21;20.55;;;9.48;;
28009;SDS011;15334;49.494;8.410;2022-09-29T09:32:04;15.50;;;8.38;;
28009;SDS011;15334;49.494;8.410;2022-09-29T09:34:40;18.33;;;8.93;;
28009;SDS011;15334;49.494;8.410;2022-09-29T09:37:15;21.38;;;10.23;;
28009;SDS011;15334;49.494;8.410;2022-09-29T09:39:50;24.02;;;10.75;;
28009;SDS011;15334;49.494;8.410;2022-09-29T09:42:29;19.25;;;7.88;;
28009;SDS011;15334;49.494;8.410;2022-09-29T09:45:02;17.15;;;8.40;;
28009;SDS011;15334;49.494;8.410;2022-09-29T09:47:35;14.80;;;7.78;;
28009;SDS011;15334;49.494;8.410;2022-09-29T09:50:11;16.77;;;7.85;;
28009;SDS011;15334;49.494;8.410;2022-09-29T09:52:42;18.42;;;7.63;;
28009;SDS011;15334;49.494;8.410;2022-09-29T09:55:13;15.15;;;8.07;;
28009;SDS011;15334;49.494;8.410;2022-09-29T09:57:46;20.50;;;9.38;;
28009;SDS011;15334;49.494;8.410;2022-09-29T10:00:35;17.08;;;7.82;;
28009;SDS011;15334;49.494;8.410;2022-09-29T10:03:09;12.68;;;7.07;;
28009;SDS011;15334;49.494;8.410;2022-09-29T10:05:42;14.52;;;7.70;;
28009;SDS011;15334;49.494;8.410;2022-09-29T10:08:12;15.45;;;7.90;;
28009;SDS011;15334;49.494;8.410;2022-09-29T10:10:47;15.07;;;6.85;;
28009;SDS011;15334;49.494;8.410;2022-09-29T10:13:25;13.90;;;7.35;;
28009;SDS011;15334;49.494;8.410;2022-09-29T10:15:54;12.10;;;7.28;;
28009;SDS011;15334;49.494;8.410;2022-09-29T10:18:28;17.65;;;8.48;;
28009;SDS011;15334;49.494;8.410;2022-09-29T10:21:02;12.02;;;6.53;;
28009;SDS011;15334;49.494;8.410;2022-09-29T10:23:30;10.07;;;5.30;;
28009;SDS011;15334;49.494;8.410;2022-09-29T10:26:00;12.75;;;5.72;;
28009;SDS011;15334;49.494;8.410;2022-09-29T10:28:38;12.45;;;5.40;;
28009;SDS011;15334;49.494;8.410;2022-09-29T10:31:18;11.23;;;5.80;;
28009;SDS011;15334;49.494;8.410;2022-09-29T10:33:51;10.40;;;4.70;;
28009;SDS011;15334;49.494;8.410;2022-09-29T10:36:22;13.55;;;5.65;;
28009;SDS011;15334;49.494;8.410;2022-09-29T10:38:52;12.68;;;5.97;;
28009;SDS011;15334;49.494;8.410;2022-09-29T10:41:28;14.82;;;5.55;;
28009;SDS011;15334;49.494;8.410;2022-09-29T10:43:56;11.07;;;5.00;;
28009;SDS011;15334;49.494;8.410;2022-09-29T10:46:48;10.18;;;5.68;;
28009;SDS011;15334;49.494;8.410;2022-09-29T10:49:20;9.70;;;5.85;;
28009;SDS011;15334;49.494;8.410;2022-09-29T10:51:56;9.15;;;5.10;;
28009;SDS011;15334;49.494;8.410;2022-09-29T10:54:34;7.95;;;4.03;;
28009;SDS011;15334;49.494;8.410;2022-09-29T10:57:13;12.98;;;5.82;;
28009;SDS011;15334;49.494;8.410;2022-09-29T10:59:45;8.60;;;4.40;;
28009;SDS011;15334;49.494;8.410;2022-09-29T11:02:16;8.43;;;4.00;;
28009;SDS011;15334;49.494;8.410;2022-09-29T11:04:51;7.90;;;4.43;;
28009;SDS011;15334;49.494;8.410;2022-09-29T11:07:22;8.48;;;4.13;;
28009;SDS011;15334;49.494;8.410;2022-09-29T11:09:50;7.85;;;3.40;;
28009;SDS011;15334;49.494;8.410;2022-09-29T11:12:32;7.80;;;3.88;;
28009;SDS011;15334;49.494;8.410;2022-09-29T11:15:20;6.53;;;4.22;;
28009;SDS011;15334;49.494;8.410;2022-09-29T11:17:51;8.50;;;4.38;;
28009;SDS011;15334;49.494;8.410;2022-09-29T11:20:21;8.50;;;4.03;;
28009;SDS011;15334;49.494;8.410;2022-09-29T11:23:18;8.50;;;4.40;;
28009;SDS011;15334;49.494;8.410;2022-09-29T11:26:03;8.30;;;4.57;;
28009;SDS011;15334;49.494;8.410;2022-09-29T11:28:47;9.20;;;4.25;;
28009;SDS011;15334;49.494;8.410;2022-09-29T11:31:31;11.60;;;4.68;;
28009;SDS011;15334;49.494;8.410;2022-09-29T11:34:24;6.78;;;3.75;;
28009;SDS011;15334;49.494;8.410;2022-09-29T11:37:18;7.40;;;4.25;;
28009;SDS011;15334;49.494;8.410;2022-09-29T11:39:57;8.87;;;3.77;;
28009;SDS011;15334;49.494;8.410;2022-09-29T11:42:33;8.07;;;3.47;;
28009;SDS011;15334;49.494;8.410;2022-09-29T11:45:11;8.60;;;3.83;;
28009;SDS011;15334;49.494;8.410;2022-09-29T11:47:49;7.95;;;3.65;;
28009;SDS011;15334;49.494;8.410;2022-09-29T11:50:30;8.35;;;4.57;;
28009;SDS011;15334;49.494;8.410;2022-09-29T11:53:15;6.65;;;3.65;;
28009;SDS011;15334;49.494;8.410;2022-09-29T11:55:55;7.88;;;4.03;;
28009;SDS011;15334;49.494;8.410;2022-09-29T11:58:36;9.18;;;4.28;;
28009;SDS011;15334;49.494;8.410;2022-09-29T12:01:25;6.47;;;3.88;;
28009;SDS011;15334;49.494;8.410;2022-09-29T12:04:08;6.82;;;4.40;;
28009;SDS011;15334;49.494;8.410;2022-09-29T12:06:53;6.65;;;3.30;;
28009;SDS011;15334;49.494;8.410;2022-09-29T12:09:32;7.45;;;3.33;;
28009;SDS011;15334;49.494;8.410;2022-09-29T12:12:09;5.82;;;2.80;;
28009;SDS011;15334;49.494;8.410;2022-09-29T12:14:55;5.30;;;2.38;;
28009;SDS011;15334;49.494;8.410;2022-09-29T12:17:34;4.13;;;2.30;;
28009;SDS011;15334;49.494;8.410;2022-09-29T12:20:12;7.75;;;2.60;;
28009;SDS011;15334;49.494;8.410;2022-09-29T12:22:45;8.55;;;1.95;;
28009;SDS011;15334;49.494;8.410;2022-09-29T12:25:16;4.72;;;2.35;;
28009;SDS011;15334;49.494;8.410;2022-09-29T12:27:47;5.30;;;1.90;;
28009;SDS011;15334;49.494;8.410;2022-09-29T12:30:17;4.80;;;1.95;;
28009;SDS011;15334;49.494;8.410;2022-09-29T12:32:49;6.53;;;2.55;;
28009;SDS011;15334;49.494;8.410;2022-09-29T12:35:24;3.75;;;2.17;;
28009;SDS011;15334;49.494;8.410;2022-09-29T12:38:00;4.38;;;2.13;;
28009;SDS011;15334;49.494;8.410;2022-09-29T12:40:41;4.13;;;1.70;;
28009;SDS011;15334;49.494;8.410;2022-09-29T12:43:16;3.30;;;1.60;;
28009;SDS011;15334;49.494;8.410;2022-09-29T12:45:50;5.85;;;1.50;;
28009;SDS011;15334;49.494;8.410;2022-09-29T12:48:30;8.13;;;1.90;;
28009;SDS011;15334;49.494;8.410;2022-09-29T12:53:41;4.28;;;1.92;;
28009;SDS011;15334;49.494;8.410;2022-09-29T12:56:21;4.80;;;2.30;;
28009;SDS011;15334;49.494;8.410;2022-09-29T12:58:53;3.40;;;1.85;;
28009;SDS011;15334;49.494;8.410;2022-09-29T13:01:29;3.35;;;1.80;;
28009;SDS011;15334;49.494;8.410;2022-09-29T13:04:12;5.40;;;2.10;;
28009;SDS011;15334;49.494;8.410;2022-09-29T13:10:21;4.37;;;2.37;;
28009;SDS011;15334;49.494;8.410;2022-09-29T13:13:05;4.80;;;2.00;;
28009;SDS011;15334;49.494;8.410;2022-09-29T13:15:48;6.03;;;2.33;;
28009;SDS011;15334;49.494;8.410;2022-09-29T13:18:30;5.32;;;2.30;;
28009;SDS011;15334;49.494;8.410;2022-09-29T13:21:33;4.28;;;2.10;;
28009;SDS011;15334;49.494;8.410;2022-09-29T13:24:14;4.15;;;1.80;;
28009;SDS011;15334;49.494;8.410;2022-09-29T13:26:57;4.45;;;2.20;;
28009;SDS011;15334;49.494;8.410;2022-09-29T13:29:43;6.22;;;3.13;;
28009;SDS011;15334;49.494;8.410;2022-09-29T13:32:14;3.40;;;1.88;;
28009;SDS011;15334;49.494;8.410;2022-09-29T13:34:46;3.92;;;1.85;;
28009;SDS011;15334;49.494;8.410;2022-09-29T13:37:20;4.15;;;1.80;;
28009;SDS011;15334;49.494;8.410;2022-09-29T13:39:54;4.90;;;1.58;;
28009;SDS011;15334;49.494;8.410;2022-09-29T13:42:38;4.00;;;1.42;;
28009;SDS011;15334;49.494;8.410;2022-09-29T13:51:20;2.70;;;1.60;;
28009;SDS011;15334;49.494;8.410;2022-09-29T13:54:23;4.90;;;1.77;;
28009;SDS011;15334;49.494;8.410;2022-09-29T14:00:00;4.03;;;1.58;;
28009;SDS011;15334;49.494;8.410;2022-09-29T14:03:01;6.47;;;2.15;;
28009;SDS011;15334;49.494;8.410;2022-09-29T14:05:37;2.72;;;1.55;;
28009;SDS011;15334;49.494;8.410;2022-09-29T14:08:16;3.65;;;1.75;;
28009;SDS011;15334;49.494;8.410;2022-09-29T14:10:52;4.40;;;1.85;;
28009;SDS011;15334;49.494;8.410;2022-09-29T14:13:28;4.15;;;1.63;;
28009;SDS011;15334;49.494;8.410;2022-09-29T14:16:04;3.88;;;1.70;;
28009;SDS011;15334;49.494;8.410;2022-09-29T14:18:52;2.92;;;1.63;;
28009;SDS011;15334;49.494;8.410;2022-09-29T14:27:24;3.83;;;1.58;;
28009;SDS011;15334;49.494;8.410;2022-09-29T14:29:57;5.95;;;1.70;;
28009;SDS011;15334;49.494;8.410;2022-09-29T14:32:38;3.05;;;1.70;;
28009;SDS011;15334;49.494;8.410;2022-09-29T14:35:19;5.22;;;1.88;;
28009;SDS011;15334;49.494;8.410;2022-09-29T14:38:02;3.85;;;2.13;;
28009;SDS011;15334;49.494;8.410;2022-09-29T14:40:35;4.07;;;1.92;;
28009;SDS011;15334;49.494;8.410;2022-09-29T14:43:07;4.22;;;2.00;;
28009;SDS011;15334;49.494;8.410;2022-09-29T14:45:47;2.95;;;1.63;;
28009;SDS011;15334;49.494;8.410;2022-09-29T14:48:50;3.58;;;1.42;;
28009;SDS011;15334;49.494;8.410;2022-09-29T14:51:48;1.85;;;1.50;;
28009;SDS011;15334;49.494;8.410;2022-09-29T14:54:28;3.50;;;1.63;;
28009;SDS011;15334;49.494;8.410;2022-09-29T14:57:11;4.72;;;1.92;;
28009;SDS011;15334;49.494;8.410;2022-09-29T14:59:52;3.85;;;1.90;;
28009;SDS011;15334;49.494;8.410;2022-09-29T15:02:29;5.55;;;2.53;;
28009;SDS011;15334;49.494;8.410;2022-09-29T15:04:59;5.40;;;2.38;;
28009;SDS011;15334;49.494;8.410;2022-09-29T15:07:42;7.07;;;2.08;;
28009;SDS011;15334;49.494;8.410;2022-09-29T15:10:19;4.35;;;1.90;;
28009;SDS011;15334;49.494;8.410;2022-09-29T15:12:49;4.82;;;2.33;;
28009;SDS011;15334;49.494;8.410;2022-09-29T15:15:30;4.18;;;2.55;;
28009;SDS011;15334;49.494;8.410;2022-09-29T15:18:10;7.72;;;2.53;;
28009;SDS011;15334;49.494;8.410;2022-09-29T15:20:52;7.40;;;2.35;;
28009;SDS011;15334;49.494;8.410;2022-09-29T15:26:21;5.28;;;2.20;;
28009;SDS011;15334;49.494;8.410;2022-09-29T15:28:53;4.40;;;2.17;;
28009;SDS011;15334;49.494;8.410;2022-09-29T15:31:25;7.18;;;2.72;;
28009;SDS011;15334;49.494;8.410;2022-09-29T15:33:56;7.07;;;3.13;;
28009;SDS011;15334;49.494;8.410;2022-09-29T15:36:24;5.43;;;2.63;;
28009;SDS011;15334;49.494;8.410;2022-09-29T15:38:59;5.03;;;2.47;;
28009;SDS011;15334;49.494;8.410;2022-09-29T15:41:30;5.55;;;2.13;;
28009;SDS011;15334;49.494;8.410;2022-09-29T15:44:09;4.53;;;2.08;;
28009;SDS011;15334;49.494;8.410;2022-09-29T15:46:46;5.03;;;2.25;;
28009;SDS011;15334;49.494;8.410;2022-09-29T15:49:18;5.28;;;2.40;;